createdAt,value
2023-05-11T00:01:56.109Z,90.69
2023-05-11T00:16:58.448Z,91.40
2023-05-11T00:32:00.257Z,89.73
2023-05-11T00:47:02.054Z,90.58
2023-05-11T01:02:04.891Z,92.13
2023-05-11T01:17:17.076Z,92.41
2023-05-11T01:32:28.874Z,92.60
2023-05-11T01:47:31.729Z,90.84
2023-05-11T02:02:35.514Z,90.40
2023-05-11T02:17:40.670Z,91.96
2023-05-11T02:32:53.054Z,89.56
2023-05-11T02:47:56.754Z,89.79
2023-05-11T03:02:59.488Z,89.09
2023-05-11T03:18:02.081Z,90.12
2023-05-11T03:33:04.235Z,89.34
2023-05-11T03:48:08.370Z,89.02
2023-05-11T04:03:10.378Z,89.47
2023-05-11T04:18:12.208Z,90.93
2023-05-11T04:33:14.651Z,94.75
2023-05-11T04:48:19.585Z,95.24
2023-05-11T05:03:22.206Z,97.11
2023-05-11T05:18:23.909Z,97.68
2023-05-11T05:33:25.758Z,98.00
2023-05-11T05:48:27.427Z,95.54
2023-05-11T06:03:29.850Z,93.10
2023-05-11T06:18:31.984Z,94.34
2023-05-11T06:33:33.724Z,94.16
2023-05-11T06:48:35.418Z,93.75
2023-05-11T07:03:37.123Z,92.76
2023-05-11T07:18:38.896Z,92.43
2023-05-11T07:33:40.870Z,90.95
2023-05-11T07:48:42.520Z,90.00
2023-05-11T08:03:44.403Z,90.45
2023-05-11T08:18:46.107Z,86.79
2023-05-11T08:33:48.169Z,83.68
2023-05-11T08:48:50.702Z,83.04
2023-05-11T09:03:53.169Z,83.92
2023-05-11T09:18:59.953Z,79.68
2023-05-11T09:34:21.849Z,85.01
2023-05-11T09:49:29.502Z,87.13
2023-05-11T10:04:31.375Z,85.86
2023-05-11T10:19:33.571Z,84.84
2023-05-11T10:34:35.441Z,89.60
2023-05-11T10:49:46.125Z,87.29
2023-05-11T11:04:50.469Z,86.67
2023-05-11T11:19:52.254Z,85.53
2023-05-11T11:34:54.101Z,83.55
2023-05-11T11:49:55.915Z,86.66
2023-05-11T12:05:00.591Z,84.23
2023-05-11T12:20:14.041Z,84.77
2023-05-11T12:35:23.197Z,84.08
2023-05-11T12:50:25.021Z,85.42
2023-05-11T13:05:27.925Z,85.80
2023-05-11T13:20:32.518Z,85.14
2023-05-11T13:35:42.005Z,86.67
2023-05-11T13:50:43.505Z,86.79
2023-05-11T14:05:45.196Z,84.56
2023-05-11T14:20:46.914Z,82.75
2023-05-11T14:35:50.115Z,82.39
2023-05-11T14:50:51.725Z,79.99
2023-05-11T15:05:53.394Z,78.81
2023-05-11T15:20:55.116Z,78.23
2023-05-11T15:35:56.778Z,77.25
2023-05-11T15:51:02.138Z,76.55
2023-05-11T16:06:04.240Z,75.83
2023-05-11T16:21:06.654Z,72.85
2023-05-11T16:36:09.084Z,72.73
2023-05-11T16:51:11.025Z,73.77
2023-05-11T17:06:14.814Z,71.27
2023-05-11T17:21:17.434Z,71.88
2023-05-11T17:36:19.373Z,72.62
2023-05-11T17:51:21.075Z,73.11
2023-05-11T18:06:22.860Z,72.95
2023-05-11T18:21:26.831Z,72.70
2023-05-11T18:36:28.697Z,73.90
2023-05-11T18:51:30.412Z,73.16
2023-05-11T19:06:32.191Z,73.11
2023-05-11T19:21:35.535Z,73.93
2023-05-11T19:36:37.302Z,75.38
2023-05-11T19:51:39.128Z,75.00
2023-05-11T20:06:40.925Z,76.63
2023-05-11T20:21:42.613Z,77.62
2023-05-11T20:54:07.471Z,81.65
2023-05-11T21:09:09.216Z,83.38
2023-05-11T21:24:11.063Z,84.58
2023-05-11T21:39:15.607Z,84.14
2023-05-11T21:54:22.383Z,85.97
2023-05-11T22:09:24.141Z,85.16
2023-05-11T22:24:27.233Z,87.56
2023-05-11T22:39:29.341Z,91.46
2023-05-11T22:54:31.700Z,95.59
2023-05-11T23:09:34.752Z,92.60
2023-05-11T23:24:36.551Z,93.20
2023-05-11T23:39:39.298Z,91.73
2023-05-11T23:54:41.016Z,89.44
